sensor_id;sensor_type;location;lat;lon;timestamp;pressure;altitude;pressure_sealevel;temperature;humidity
10652;BME280;5374;42.742;23.266;2024-01-15T00:02:10;94947.16;;;-2.83;82.02
10652;BME280;5374;42.742;23.266;2024-01-15T00:04:57;94947.69;;;-2.88;82.73
10652;BME280;5374;42.742;23.266;2024-01-15T00:07:44;94942.75;;;-2.97;82.96
10652;BME280;5374;42.742;23.266;2024-01-15T00:10:31;94938.38;;;-2.97;82.42
10652;BME280;5374;42.742;23.266;2024-01-15T00:13:19;94907.47;;;-3.21;82.11
10652;BME280;5374;42.742;23.266;2024-01-15T00:16:07;94942.59;;;-2.96;81.84
10652;BME280;5374;42.742;23.266;2024-01-15T00:18:54;94941.69;;;-3.03;81.74
10652;BME280;5374;42.742;23.266;2024-01-15T00:21:41;94942.50;;;-3.02;81.84
10652;BME280;5374;42.742;23.266;2024-01-15T00:24:28;94930.72;;;-3.13;82.06
10652;BME280;5374;42.742;23.266;2024-01-15T00:27:15;94945.25;;;-3.04;82.55
10652;BME280;5374;42.742;23.266;2024-01-15T00:30:03;94912.22;;;-3.25;82.75
10652;BME280;5374;42.742;23.266;2024-01-15T00:32:52;94908.53;;;-3.30;82.11
10652;BME280;5374;42.742;23.266;2024-01-15T00:35:39;94948.22;;;-3.07;82.46
10652;BME280;5374;42.742;23.266;2024-01-15T00:38:27;94947.41;;;-3.07;82.50
10652;BME280;5374;42.742;23.266;2024-01-15T00:41:14;94951.97;;;-3.10;83.16
10652;BME280;5374;42.742;23.266;2024-01-15T00:44:01;94941.13;;;-3.13;83.17
10652;BME280;5374;42.742;23.266;2024-01-15T00:46:49;94908.59;;;-3.38;83.43
10652;BME280;5374;42.742;23.266;2024-01-15T00:49:37;94939.25;;;-3.19;84.00
10652;BME280;5374;42.742;23.266;2024-01-15T00:52:24;94940.69;;;-3.17;83.37
10652;BME280;5374;42.742;23.266;2024-01-15T00:55:11;94934.50;;;-3.16;83.38
10652;BME280;5374;42.742;23.266;2024-01-15T00:57:59;94944.69;;;-3.14;83.33
10652;BME280;5374;42.742;23.266;2024-01-15T01:00:46;94942.09;;;-3.14;82.98
10652;BME280;5374;42.742;23.266;2024-01-15T01:03:33;94939.69;;;-3.16;83.03
10652;BME280;5374;42.742;23.266;2024-01-15T01:06:21;94933.97;;;-3.11;82.74
10652;BME280;5374;42.742;23.266;2024-01-15T01:09:08;94933.50;;;-3.15;82.12
10652;BME280;5374;42.742;23.266;2024-01-15T01:11:55;94934.06;;;-3.19;82.52
10652;BME280;5374;42.742;23.266;2024-01-15T01:14:42;94935.84;;;-3.20;82.96
10652;BME280;5374;42.742;23.266;2024-01-15T01:17:29;94930.38;;;-3.25;83.14
10652;BME280;5374;42.742;23.266;2024-01-15T01:20:17;94927.59;;;-3.23;83.64
10652;BME280;5374;42.742;23.266;2024-01-15T01:23:05;94884.59;;;-3.55;82.77
10652;BME280;5374;42.742;23.266;2024-01-15T01:25:53;94921.94;;;-3.41;83.08
10652;BME280;5374;42.742;23.266;2024-01-15T01:28:40;94928.38;;;-3.37;82.01
10652;BME280;5374;42.742;23.266;2024-01-15T01:31:27;94910.00;;;-3.65;82.91
10652;BME280;5374;42.742;23.266;2024-01-15T01:34:15;94907.53;;;-3.44;83.66
10652;BME280;5374;42.742;23.266;2024-01-15T01:37:02;94913.53;;;-3.43;84.06
10652;BME280;5374;42.742;23.266;2024-01-15T01:39:51;94907.00;;;-3.39;84.15
10652;BME280;5374;42.742;23.266;2024-01-15T01:42:38;94877.88;;;-3.64;83.90
10652;BME280;5374;42.742;23.266;2024-01-15T01:45:25;94901.44;;;-3.36;84.18
10652;BME280;5374;42.742;23.266;2024-01-15T01:48:13;94897.69;;;-3.34;82.99
10652;BME280;5374;42.742;23.266;2024-01-15T01:51:02;94908.88;;;-3.33;82.87
10652;BME280;5374;42.742;23.266;2024-01-15T01:53:50;94897.69;;;-3.34;81.22
10652;BME280;5374;42.742;23.266;2024-01-15T01:56:38;94905.00;;;-3.37;81.44
10652;BME280;5374;42.742;23.266;2024-01-15T01:59:27;94897.78;;;-3.42;81.78
10652;BME280;5374;42.742;23.266;2024-01-15T02:02:14;94883.66;;;-3.39;81.57
10652;BME280;5374;42.742;23.266;2024-01-15T02:05:04;94873.75;;;-3.59;81.21
10652;BME280;5374;42.742;23.266;2024-01-15T02:07:51;94894.75;;;-3.46;81.86
10652;BME280;5374;42.742;23.266;2024-01-15T02:10:38;94847.63;;;-3.87;82.07
10652;BME280;5374;42.742;23.266;2024-01-15T02:13:27;94806.88;;;-4.16;81.45
10652;BME280;5374;42.742;23.266;2024-01-15T02:16:14;94820.31;;;-3.83;82.08
10652;BME280;5374;42.742;23.266;2024-01-15T02:19:01;94863.66;;;-3.54;82.66
10652;BME280;5374;42.742;23.266;2024-01-15T02:21:48;94863.03;;;-3.56;83.57
10652;BME280;5374;42.742;23.266;2024-01-15T02:24:36;94825.47;;;-3.60;84.12
10652;BME280;5374;42.742;23.266;2024-01-15T02:27:24;94833.63;;;-3.63;84.47
10652;BME280;5374;42.742;23.266;2024-01-15T02:30:11;94817.19;;;-3.93;84.27
10652;BME280;5374;42.742;23.266;2024-01-15T02:32:59;94845.97;;;-3.65;85.36
10652;BME280;5374;42.742;23.266;2024-01-15T02:35:46;94839.16;;;-3.66;86.46
10652;BME280;5374;42.742;23.266;2024-01-15T02:38:35;94844.25;;;-3.58;86.67
10652;BME280;5374;42.742;23.266;2024-01-15T02:41:24;94839.34;;;-3.53;86.86
10652;BME280;5374;42.742;23.266;2024-01-15T02:44:11;94805.69;;;-3.75;86.44
10652;BME280;5374;42.742;23.266;2024-01-15T02:46:58;94806.59;;;-3.68;86.12
10652;BME280;5374;42.742;23.266;2024-01-15T02:49:45;94846.41;;;-3.47;85.58
10652;BME280;5374;42.742;23.266;2024-01-15T02:52:32;94843.19;;;-3.49;85.31
10652;BME280;5374;42.742;23.266;2024-01-15T02:55:19;94848.38;;;-3.49;85.48
10652;BME280;5374;42.742;23.266;2024-01-15T02:58:08;94840.78;;;-3.50;85.18
10652;BME280;5374;42.742;23.266;2024-01-15T03:00:55;94824.13;;;-3.56;84.74
10652;BME280;5374;42.742;23.266;2024-01-15T03:03:42;94767.03;;;-4.00;84.29
10652;BME280;5374;42.742;23.266;2024-01-15T03:06:29;94828.44;;;-3.48;84.26
10652;BME280;5374;42.742;23.266;2024-01-15T03:09:16;94802.03;;;-3.66;84.03
10652;BME280;5374;42.742;23.266;2024-01-15T03:12:04;94828.44;;;-3.48;83.72
10652;BME280;5374;42.742;23.266;2024-01-15T03:14:53;94817.31;;;-3.57;83.24
10652;BME280;5374;42.742;23.266;2024-01-15T03:17:41;94830.22;;;-3.49;83.55
10652;BME280;5374;42.742;23.266;2024-01-15T03:20:29;94808.91;;;-3.88;83.61
10652;BME280;5374;42.742;23.266;2024-01-15T03:23:16;94817.59;;;-3.52;83.10
10652;BME280;5374;42.742;23.266;2024-01-15T03:26:03;94814.38;;;-3.54;83.09
10652;BME280;5374;42.742;23.266;2024-01-15T03:28:50;94719.78;;;-4.25;82.98
10652;BME280;5374;42.742;23.266;2024-01-15T03:31:39;94804.00;;;-3.54;82.55
10652;BME280;5374;42.742;23.266;2024-01-15T03:34:26;94817.31;;;-3.57;83.37
10652;BME280;5374;42.742;23.266;2024-01-15T03:37:13;94797.56;;;-3.72;82.97
10652;BME280;5374;42.742;23.266;2024-01-15T03:40:00;94810.72;;;-3.45;82.43
10652;BME280;5374;42.742;23.266;2024-01-15T03:42:48;94809.75;;;-3.43;82.70
10652;BME280;5374;42.742;23.266;2024-01-15T03:45:35;94809.97;;;-3.38;82.49
10652;BME280;5374;42.742;23.266;2024-01-15T03:48:23;94819.75;;;-3.40;82.83
10652;BME280;5374;42.742;23.266;2024-01-15T03:51:10;94805.81;;;-3.39;82.71
10652;BME280;5374;42.742;23.266;2024-01-15T03:53:57;94805.59;;;-3.38;82.96
10652;BME280;5374;42.742;23.266;2024-01-15T03:56:45;94810.25;;;-3.33;83.21
10652;BME280;5374;42.742;23.266;2024-01-15T03:59:32;94806.69;;;-3.32;83.19
10652;BME280;5374;42.742;23.266;2024-01-15T04:02:19;94807.75;;;-3.27;82.99
10652;BME280;5374;42.742;23.266;2024-01-15T04:05:08;94750.31;;;-3.53;83.29
10652;BME280;5374;42.742;23.266;2024-01-15T04:07:55;94788.44;;;-3.24;83.59
10652;BME280;5374;42.742;23.266;2024-01-15T04:10:42;94776.34;;;-3.32;83.19
10652;BME280;5374;42.742;23.266;2024-01-15T04:13:32;94797.69;;;-3.15;83.11
10652;BME280;5374;42.742;23.266;2024-01-15T04:16:19;94795.72;;;-3.13;82.99
10652;BME280;5374;42.742;23.266;2024-01-15T04:19:06;94793.41;;;-3.08;82.87
10652;BME280;5374;42.742;23.266;2024-01-15T04:21:55;94789.19;;;-3.09;83.38
10652;BME280;5374;42.742;23.266;2024-01-15T04:24:42;94787.84;;;-3.05;83.19
10652;BME280;5374;42.742;23.266;2024-01-15T04:27:29;94786.16;;;-2.98;83.48
10652;BME280;5374;42.742;23.266;2024-01-15T04:30:16;94785.53;;;-3.00;83.49
10652;BME280;5374;42.742;23.266;2024-01-15T04:33:04;94782.97;;;-2.93;83.76
10652;BME280;5374;42.742;23.266;2024-01-15T04:35:52;94767.16;;;-2.98;83.90
10652;BME280;5374;42.742;23.266;2024-01-15T04:38:40;94785.66;;;-2.87;83.58
10652;BME280;5374;42.742;23.266;2024-01-15T04:41:28;94790.06;;;-2.87;83.67
10652;BME280;5374;42.742;23.266;2024-01-15T04:44:15;94780.09;;;-2.84;83.50
10652;BME280;5374;42.742;23.266;2024-01-15T04:47:02;94771.06;;;-2.88;84.38
10652;BME280;5374;42.742;23.266;2024-01-15T04:49:50;94778.50;;;-2.85;84.36
10652;BME280;5374;42.742;23.266;2024-01-15T04:52:37;94696.44;;;-3.36;84.29
10652;BME280;5374;42.742;23.266;2024-01-15T04:55:26;94767.75;;;-2.82;84.33
10652;BME280;5374;42.742;23.266;2024-01-15T04:58:13;94748.19;;;-2.99;84.60
10652;BME280;5374;42.742;23.266;2024-01-15T05:01:00;94768.47;;;-2.88;85.40
10652;BME280;5374;42.742;23.266;2024-01-15T05:03:48;94758.78;;;-2.79;85.17
10652;BME280;5374;42.742;23.266;2024-01-15T05:06:35;94773.19;;;-2.77;84.63
10652;BME280;5374;42.742;23.266;2024-01-15T05:09:22;94735.25;;;-2.92;84.90
10652;BME280;5374;42.742;23.266;2024-01-15T05:12:11;94761.06;;;-2.69;84.77
10652;BME280;5374;42.742;23.266;2024-01-15T05:14:58;94752.28;;;-2.68;84.91
10652;BME280;5374;42.742;23.266;2024-01-15T05:17:45;94746.91;;;-2.67;84.84
10652;BME280;5374;42.742;23.266;2024-01-15T05:20:32;94767.13;;;-2.62;85.34
10652;BME280;5374;42.742;23.266;2024-01-15T05:23:19;94758.72;;;-2.64;85.30
10652;BME280;5374;42.742;23.266;2024-01-15T05:26:06;94720.53;;;-2.85;85.42
10652;BME280;5374;42.742;23.266;2024-01-15T05:28:56;94752.06;;;-2.52;85.19
10652;BME280;5374;42.742;23.266;2024-01-15T05:31:43;94752.09;;;-2.46;85.32
10652;BME280;5374;42.742;23.266;2024-01-15T05:34:30;94752.91;;;-2.45;85.37
10652;BME280;5374;42.742;23.266;2024-01-15T05:37:18;94747.75;;;-2.38;85.53
10652;BME280;5374;42.742;23.266;2024-01-15T05:40:05;94735.38;;;-2.36;85.73
10652;BME280;5374;42.742;23.266;2024-01-15T05:42:52;94738.97;;;-2.37;85.71
10652;BME280;5374;42.742;23.266;2024-01-15T05:45:42;94726.41;;;-2.34;85.41
10652;BME280;5374;42.742;23.266;2024-01-15T05:48:30;94638.97;;;-2.91;84.04
10652;BME280;5374;42.742;23.266;2024-01-15T05:51:17;94723.38;;;-2.37;84.80
10652;BME280;5374;42.742;23.266;2024-01-15T05:54:04;94702.97;;;-2.62;84.14
10652;BME280;5374;42.742;23.266;2024-01-15T05:56:51;94726.91;;;-2.45;84.36
10652;BME280;5374;42.742;23.266;2024-01-15T05:59:38;94712.31;;;-2.67;85.03
10652;BME280;5374;42.742;23.266;2024-01-15T06:02:27;94743.88;;;-2.49;85.98
10652;BME280;5374;42.742;23.266;2024-01-15T06:05:14;94746.72;;;-2.44;85.27
10652;BME280;5374;42.742;23.266;2024-01-15T06:08:01;94740.97;;;-2.39;85.52
10652;BME280;5374;42.742;23.266;2024-01-15T06:10:48;94706.88;;;-2.51;85.08
10652;BME280;5374;42.742;23.266;2024-01-15T06:13:35;94731.69;;;-2.27;84.46
10652;BME280;5374;42.742;23.266;2024-01-15T06:16:23;94732.31;;;-2.19;83.99
10652;BME280;5374;42.742;23.266;2024-01-15T06:19:12;94717.59;;;-2.12;84.06
10652;BME280;5374;42.742;23.266;2024-01-15T06:21:59;94709.84;;;-1.98;83.24
10652;BME280;5374;42.742;23.266;2024-01-15T06:24:46;94694.44;;;-2.00;83.34
10652;BME280;5374;42.742;23.266;2024-01-15T06:27:33;94684.84;;;-1.99;83.01
10652;BME280;5374;42.742;23.266;2024-01-15T06:30:20;94727.09;;;-1.63;82.65
10652;BME280;5374;42.742;23.266;2024-01-15T06:33:07;94730.19;;;-1.46;82.56
10652;BME280;5374;42.742;23.266;2024-01-15T06:35:56;94734.09;;;-1.22;80.55
10652;BME280;5374;42.742;23.266;2024-01-15T06:38:43;94715.47;;;-1.13;81.05
10652;BME280;5374;42.742;23.266;2024-01-15T06:41:30;94705.31;;;-1.01;80.76
10652;BME280;5374;42.742;23.266;2024-01-15T06:44:18;94726.44;;;-0.76;80.89
10652;BME280;5374;42.742;23.266;2024-01-15T06:47:06;94718.44;;;-0.61;80.32
10652;BME280;5374;42.742;23.266;2024-01-15T06:49:53;94707.41;;;-0.63;80.10
10652;BME280;5374;42.742;23.266;2024-01-15T06:52:42;94715.84;;;-0.48;79.60
10652;BME280;5374;42.742;23.266;2024-01-15T06:55:29;94725.09;;;-0.26;78.89
10652;BME280;5374;42.742;23.266;2024-01-15T06:58:17;94739.13;;;-0.27;78.53
10652;BME280;5374;42.742;23.266;2024-01-15T07:01:04;94730.09;;;-0.31;78.05
10652;BME280;5374;42.742;23.266;2024-01-15T07:03:51;94737.91;;;-0.18;78.41
10652;BME280;5374;42.742;23.266;2024-01-15T07:06:38;94740.34;;;-0.10;78.01
10652;BME280;5374;42.742;23.266;2024-01-15T07:09:27;94713.22;;;-0.22;77.74
10652;BME280;5374;42.742;23.266;2024-01-15T07:12:14;94723.91;;;-0.23;78.24
10652;BME280;5374;42.742;23.266;2024-01-15T07:15:02;94725.47;;;-0.16;77.92
10652;BME280;5374;42.742;23.266;2024-01-15T07:17:49;94735.91;;;-0.16;77.87
10652;BME280;5374;42.742;23.266;2024-01-15T07:20:47;94736.53;;;-0.14;77.94
10652;BME280;5374;42.742;23.266;2024-01-15T07:23:39;94736.53;;;-0.07;77.65
10652;BME280;5374;42.742;23.266;2024-01-15T07:26:30;94724.50;;;-0.02;77.47
10652;BME280;5374;42.742;23.266;2024-01-15T07:29:17;94722.28;;;-0.05;77.65
10652;BME280;5374;42.742;23.266;2024-01-15T07:32:05;94685.97;;;-0.46;77.59
10652;BME280;5374;42.742;23.266;2024-01-15T07:34:53;94717.03;;;0.02;77.53
10652;BME280;5374;42.742;23.266;2024-01-15T07:37:40;94712.66;;;-0.11;77.82
10652;BME280;5374;42.742;23.266;2024-01-15T07:40:27;94719.84;;;0.00;78.06
10652;BME280;5374;42.742;23.266;2024-01-15T07:43:16;94717.03;;;0.02;78.12
10652;BME280;5374;42.742;23.266;2024-01-15T07:46:03;94727.09;;;0.12;77.78
10652;BME280;5374;42.742;23.266;2024-01-15T07:48:51;94733.91;;;0.06;78.30
10652;BME280;5374;42.742;23.266;2024-01-15T07:51:43;94727.09;;;0.12;78.37
10652;BME280;5374;42.742;23.266;2024-01-15T07:54:30;94710.78;;;0.23;77.30
10652;BME280;5374;42.742;23.266;2024-01-15T07:57:18;94701.34;;;0.28;77.06
10652;BME280;5374;42.742;23.266;2024-01-15T08:00:07;94694.50;;;0.34;76.52
10652;BME280;5374;42.742;23.266;2024-01-15T08:02:55;94704.75;;;0.42;77.06
10652;BME280;5374;42.742;23.266;2024-01-15T08:05:42;94712.94;;;0.59;76.78
10652;BME280;5374;42.742;23.266;2024-01-15T08:08:29;94720.09;;;0.77;75.86
10652;BME280;5374;42.742;23.266;2024-01-15T08:11:16;94723.03;;;1.00;75.76
10652;BME280;5374;42.742;23.266;2024-01-15T08:14:03;94720.41;;;1.00;74.83
10652;BME280;5374;42.742;23.266;2024-01-15T08:16:51;94729.03;;;1.07;75.47
10652;BME280;5374;42.742;23.266;2024-01-15T08:19:39;94711.94;;;1.05;75.34
10652;BME280;5374;42.742;23.266;2024-01-15T08:22:27;94728.72;;;1.28;74.30
10652;BME280;5374;42.742;23.266;2024-01-15T08:25:15;94712.28;;;1.53;73.04
10652;BME280;5374;42.742;23.266;2024-01-15T08:28:02;94693.38;;;1.51;71.78
10652;BME280;5374;42.742;23.266;2024-01-15T08:30:49;94710.03;;;1.81;71.23
10652;BME280;5374;42.742;23.266;2024-01-15T08:33:38;94712.50;;;2.26;71.37
10652;BME280;5374;42.742;23.266;2024-01-15T08:36:25;94684.50;;;2.63;67.84
10652;BME280;5374;42.742;23.266;2024-01-15T08:39:12;94715.22;;;2.92;66.96
10652;BME280;5374;42.742;23.266;2024-01-15T08:41:59;94695.31;;;3.03;66.90
10652;BME280;5374;42.742;23.266;2024-01-15T08:44:47;94701.16;;;3.05;66.43
10652;BME280;5374;42.742;23.266;2024-01-15T08:47:35;94687.13;;;2.81;65.04
10652;BME280;5374;42.742;23.266;2024-01-15T08:50:24;94691.84;;;2.91;66.07
10652;BME280;5374;42.742;23.266;2024-01-15T08:53:11;94676.81;;;2.98;66.17
10652;BME280;5374;42.742;23.266;2024-01-15T08:55:59;94666.75;;;3.13;65.64
10652;BME280;5374;42.742;23.266;2024-01-15T08:58:46;94660.50;;;3.14;65.13
10652;BME280;5374;42.742;23.266;2024-01-15T09:01:33;94680.84;;;3.30;65.55
10652;BME280;5374;42.742;23.266;2024-01-15T09:04:20;94646.28;;;3.33;65.83
10652;BME280;5374;42.742;23.266;2024-01-15T09:07:09;94623.69;;;3.32;65.10
10652;BME280;5374;42.742;23.266;2024-01-15T09:09:56;94611.97;;;3.47;64.34
10652;BME280;5374;42.742;23.266;2024-01-15T09:12:45;94644.31;;;3.70;64.66
10652;BME280;5374;42.742;23.266;2024-01-15T09:15:32;94632.00;;;3.94;63.34
10652;BME280;5374;42.742;23.266;2024-01-15T09:18:19;94643.66;;;4.22;62.46
10652;BME280;5374;42.742;23.266;2024-01-15T09:21:06;94604.31;;;4.78;60.88
10652;BME280;5374;42.742;23.266;2024-01-15T09:23:55;94625.75;;;4.99;61.02
10652;BME280;5374;42.742;23.266;2024-01-15T09:26:42;94597.94;;;5.03;60.46
10652;BME280;5374;42.742;23.266;2024-01-15T09:29:30;94610.03;;;5.15;60.42
10652;BME280;5374;42.742;23.266;2024-01-15T09:32:17;94585.47;;;5.43;59.08
10652;BME280;5374;42.742;23.266;2024-01-15T09:35:05;94595.53;;;5.46;59.93
10652;BME280;5374;42.742;23.266;2024-01-15T09:37:53;94580.78;;;5.45;59.14
10652;BME280;5374;42.742;23.266;2024-01-15T09:40:43;94586.22;;;5.72;59.07
10652;BME280;5374;42.742;23.266;2024-01-15T09:43:32;94581.59;;;5.96;57.83
10652;BME280;5374;42.742;23.266;2024-01-15T09:46:20;94555.97;;;6.08;57.06
10652;BME280;5374;42.742;23.266;2024-01-15T09:49:07;94549.34;;;6.28;55.60
10652;BME280;5374;42.742;23.266;2024-01-15T09:51:57;94526.19;;;6.30;55.87
10652;BME280;5374;42.742;23.266;2024-01-15T09:54:46;94536.22;;;6.33;55.20
10652;BME280;5374;42.742;23.266;2024-01-15T09:57:34;94553.59;;;6.50;54.66
10652;BME280;5374;42.742;23.266;2024-01-15T10:00:22;94549.47;;;6.38;53.38
10652;BME280;5374;42.742;23.266;2024-01-15T10:03:10;94548.34;;;6.34;54.01
10652;BME280;5374;42.742;23.266;2024-01-15T10:05:59;94547.22;;;6.46;53.98
10652;BME280;5374;42.742;23.266;2024-01-15T10:08:48;94516.22;;;6.59;53.65
10652;BME280;5374;42.742;23.266;2024-01-15T10:11:36;94512.28;;;6.61;53.41
10652;BME280;5374;42.742;23.266;2024-01-15T10:14:24;94506.03;;;6.67;54.14
10652;BME280;5374;42.742;23.266;2024-01-15T10:17:12;94511.94;;;6.74;53.90
10652;BME280;5374;42.742;23.266;2024-01-15T10:20:01;94491.50;;;6.65;53.72
10652;BME280;5374;42.742;23.266;2024-01-15T10:22:50;94488.22;;;6.79;53.63
10652;BME280;5374;42.742;23.266;2024-01-15T10:25:37;94491.94;;;6.83;52.97
10652;BME280;5374;42.742;23.266;2024-01-15T10:28:26;94489.06;;;6.85;52.95
10652;BME280;5374;42.742;23.266;2024-01-15T10:31:17;94489.41;;;6.94;52.78
10652;BME280;5374;42.742;23.266;2024-01-15T10:34:11;94462.84;;;6.73;51.21
10652;BME280;5374;42.742;23.266;2024-01-15T10:37:01;94450.28;;;6.85;51.27
10652;BME280;5374;42.742;23.266;2024-01-15T10:40:09;94431.13;;;6.68;51.62
10652;BME280;5374;42.742;23.266;2024-01-15T10:43:00;94457.09;;;6.81;51.42
10652;BME280;5374;42.742;23.266;2024-01-15T10:45:50;94482.59;;;6.98;50.27
10652;BME280;5374;42.742;23.266;2024-01-15T10:48:39;94479.44;;;7.01;50.66
10652;BME280;5374;42.742;23.266;2024-01-15T10:51:26;94458.63;;;7.04;50.75
10652;BME280;5374;42.742;23.266;2024-01-15T10:54:14;94461.94;;;6.90;50.45
10652;BME280;5374;42.742;23.266;2024-01-15T10:57:02;94475.19;;;6.95;51.22
10652;BME280;5374;42.742;23.266;2024-01-15T10:59:49;94465.13;;;6.92;50.84
10652;BME280;5374;42.742;23.266;2024-01-15T11:02:37;94451.53;;;7.10;49.82
10652;BME280;5374;42.742;23.266;2024-01-15T11:05:26;94440.28;;;7.19;49.16
10652;BME280;5374;42.742;23.266;2024-01-15T11:08:17;94424.06;;;7.43;48.56
10652;BME280;5374;42.742;23.266;2024-01-15T11:11:04;94433.59;;;7.49;49.10
10652;BME280;5374;42.742;23.266;2024-01-15T11:13:51;94431.03;;;7.59;48.69
10652;BME280;5374;42.742;23.266;2024-01-15T11:16:55;94426.63;;;7.75;48.25
10652;BME280;5374;42.742;23.266;2024-01-15T11:19:44;94431.72;;;7.92;48.32
10652;BME280;5374;42.742;23.266;2024-01-15T11:22:56;94413.75;;;7.94;48.26
10652;BME280;5374;42.742;23.266;2024-01-15T11:25:45;94425.69;;;8.01;48.92
10652;BME280;5374;42.742;23.266;2024-01-15T11:28:47;94417.28;;;8.14;49.18
10652;BME280;5374;42.742;23.266;2024-01-15T11:31:57;94414.41;;;8.26;47.78
10652;BME280;5374;42.742;23.266;2024-01-15T11:34:58;94418.25;;;7.88;47.63
10652;BME280;5374;42.742;23.266;2024-01-15T11:37:58;94407.94;;;7.97;47.22
10652;BME280;5374;42.742;23.266;2024-01-15T11:40:45;94409.09;;;8.11;47.11
10652;BME280;5374;42.742;23.266;2024-01-15T11:43:33;94417.50;;;8.03;47.87
10652;BME280;5374;42.742;23.266;2024-01-15T11:46:21;94409.81;;;8.01;47.63
10652;BME280;5374;42.742;23.266;2024-01-15T11:49:12;94396.13;;;8.09;47.82
10652;BME280;5374;42.742;23.266;2024-01-15T11:52:06;94401.16;;;8.16;47.09
10652;BME280;5374;42.742;23.266;2024-01-15T11:55:01;94390.03;;;8.14;48.51
10652;BME280;5374;42.742;23.266;2024-01-15T11:57:50;94379.41;;;7.99;48.09
10652;BME280;5374;42.742;23.266;2024-01-15T12:00:42;94393.75;;;8.08;48.87
10652;BME280;5374;42.742;23.266;2024-01-15T12:03:32;94381.25;;;7.93;49.06
10652;BME280;5374;42.742;23.266;2024-01-15T12:06:20;94388.38;;;7.87;48.10
10652;BME280;5374;42.742;23.266;2024-01-15T12:09:09;94390.13;;;7.72;49.03
10652;BME280;5374;42.742;23.266;2024-01-15T12:12:01;94376.09;;;7.61;49.81
10652;BME280;5374;42.742;23.266;2024-01-15T12:14:51;94370.78;;;7.56;49.80
10652;BME280;5374;42.742;23.266;2024-01-15T12:17:38;94368.41;;;7.54;49.87
10652;BME280;5374;42.742;23.266;2024-01-15T12:20:26;94362.81;;;7.51;50.12
10652;BME280;5374;42.742;23.266;2024-01-15T12:23:14;94349.34;;;7.42;50.48
10652;BME280;5374;42.742;23.266;2024-01-15T12:26:02;94351.75;;;7.54;50.24
10652;BME280;5374;42.742;23.266;2024-01-15T12:28:51;94370.81;;;7.61;50.66
10652;BME280;5374;42.742;23.266;2024-01-15T12:31:38;94344.13;;;7.58;51.12
10652;BME280;5374;42.742;23.266;2024-01-15T12:34:28;94341.78;;;7.71;50.66
10652;BME280;5374;42.742;23.266;2024-01-15T12:37:18;94310.00;;;7.51;51.20
10652;BME280;5374;42.742;23.266;2024-01-15T12:40:07;94324.03;;;7.57;51.37
10652;BME280;5374;42.742;23.266;2024-01-15T12:42:55;94319.03;;;7.60;51.27
10652;BME280;5374;42.742;23.266;2024-01-15T12:45:44;94334.13;;;7.70;51.86
10652;BME280;5374;42.742;23.266;2024-01-15T12:48:31;94337.00;;;7.68;51.75
10652;BME280;5374;42.742;23.266;2024-01-15T12:51:18;94321.88;;;7.48;52.15
10652;BME280;5374;42.742;23.266;2024-01-15T12:54:06;94326.09;;;7.44;52.47
10652;BME280;5374;42.742;23.266;2024-01-15T12:56:53;94324.94;;;7.25;52.16
10652;BME280;5374;42.742;23.266;2024-01-15T12:59:40;94305.34;;;7.16;52.34
10652;BME280;5374;42.742;23.266;2024-01-15T13:02:28;94303.81;;;7.20;52.61
10652;BME280;5374;42.742;23.266;2024-01-15T13:05:16;94296.91;;;7.14;52.50
10652;BME280;5374;42.742;23.266;2024-01-15T13:08:04;94306.63;;;7.08;52.88
10652;BME280;5374;42.742;23.266;2024-01-15T13:10:51;94315.81;;;7.01;53.45
10652;BME280;5374;42.742;23.266;2024-01-15T13:13:42;94307.63;;;6.97;53.46
10652;BME280;5374;42.742;23.266;2024-01-15T13:16:29;94304.19;;;6.97;53.24
10652;BME280;5374;42.742;23.266;2024-01-15T13:19:18;94304.78;;;7.09;53.99
10652;BME280;5374;42.742;23.266;2024-01-15T13:22:07;94294.78;;;7.11;54.17
10652;BME280;5374;42.742;23.266;2024-01-15T13:24:55;94298.94;;;7.02;54.45
10652;BME280;5374;42.742;23.266;2024-01-15T13:27:42;94269.53;;;6.83;54.12
10652;BME280;5374;42.742;23.266;2024-01-15T13:30:29;94294.88;;;6.84;53.94
10652;BME280;5374;42.742;23.266;2024-01-15T13:33:17;94300.88;;;6.74;54.58
10652;BME280;5374;42.742;23.266;2024-01-15T13:36:06;94282.44;;;6.79;55.48
10652;BME280;5374;42.742;23.266;2024-01-15T13:38:56;94274.53;;;6.79;55.36
10652;BME280;5374;42.742;23.266;2024-01-15T13:41:44;94277.16;;;6.74;55.94
10652;BME280;5374;42.742;23.266;2024-01-15T13:44:31;94283.47;;;6.73;56.70
10652;BME280;5374;42.742;23.266;2024-01-15T13:47:18;94290.88;;;6.76;57.00
10652;BME280;5374;42.742;23.266;2024-01-15T13:50:07;94234.47;;;6.45;57.47
10652;BME280;5374;42.742;23.266;2024-01-15T13:52:55;94270.81;;;6.75;57.24
10652;BME280;5374;42.742;23.266;2024-01-15T13:55:42;94278.09;;;6.63;57.70
10652;BME280;5374;42.742;23.266;2024-01-15T13:58:31;94250.66;;;6.59;57.53
10652;BME280;5374;42.742;23.266;2024-01-15T14:01:18;94255.63;;;6.56;57.89
10652;BME280;5374;42.742;23.266;2024-01-15T14:04:05;94254.50;;;6.41;58.47
10652;BME280;5374;42.742;23.266;2024-01-15T14:06:53;94254.19;;;6.38;58.52
10652;BME280;5374;42.742;23.266;2024-01-15T14:09:41;94261.31;;;6.37;58.76
10652;BME280;5374;42.742;23.266;2024-01-15T14:12:29;94259.47;;;6.38;59.27
10652;BME280;5374;42.742;23.266;2024-01-15T14:15:16;94245.69;;;6.26;59.55
10652;BME280;5374;42.742;23.266;2024-01-15T14:18:04;94232.00;;;6.29;59.03
10652;BME280;5374;42.742;23.266;2024-01-15T14:20:52;94255.72;;;6.29;59.17
10652;BME280;5374;42.742;23.266;2024-01-15T14:23:40;94234.50;;;6.13;59.69
10652;BME280;5374;42.742;23.266;2024-01-15T14:26:28;94239.63;;;6.25;60.17
10652;BME280;5374;42.742;23.266;2024-01-15T14:29:16;94244.38;;;6.28;60.38
10652;BME280;5374;42.742;23.266;2024-01-15T14:32:05;94253.53;;;6.21;60.33
10652;BME280;5374;42.742;23.266;2024-01-15T14:34:52;94236.63;;;6.16;61.01
10652;BME280;5374;42.742;23.266;2024-01-15T14:37:39;94223.84;;;5.98;61.16
10652;BME280;5374;42.742;23.266;2024-01-15T14:40:26;94238.72;;;6.09;61.74
10652;BME280;5374;42.742;23.266;2024-01-15T14:43:15;94223.16;;;6.08;62.07
10652;BME280;5374;42.742;23.266;2024-01-15T14:46:02;94202.25;;;6.01;62.29
10652;BME280;5374;42.742;23.266;2024-01-15T14:48:50;94222.66;;;5.84;62.19
10652;BME280;5374;42.742;23.266;2024-01-15T14:51:37;94220.19;;;5.77;62.96
10652;BME280;5374;42.742;23.266;2024-01-15T14:54:24;94213.66;;;5.80;63.45
10652;BME280;5374;42.742;23.266;2024-01-15T14:57:11;94209.38;;;5.74;63.31